createdAt,value
2022-10-08T00:01:12.410Z,83.40
2022-10-08T00:03:43.416Z,83.70
2022-10-08T00:06:13.561Z,83.80
2022-10-08T00:08:43.213Z,83.90
2022-10-08T00:11:13.524Z,83.90
2022-10-08T00:13:42.527Z,84.00
2022-10-08T00:16:12.639Z,84.00
2022-10-08T00:18:41.188Z,84.10
2022-10-08T00:21:31.676Z,84.20
2022-10-08T00:24:01.381Z,84.40
2022-10-08T00:26:30.419Z,84.50
2022-10-08T00:29:01.627Z,84.70
2022-10-08T00:31:35.962Z,84.90
2022-10-08T00:34:05.979Z,84.90
2022-10-08T00:36:34.510Z,84.80
2022-10-08T00:39:16.520Z,84.80
2022-10-08T00:41:46.046Z,84.80
2022-10-08T00:44:46.913Z,84.90
2022-10-08T00:47:35.429Z,85.10
2022-10-08T00:50:06.246Z,85.10
2022-10-08T00:52:41.729Z,85.20
2022-10-08T00:55:10.503Z,85.30
2022-10-08T00:57:38.896Z,85.40
2022-10-08T01:00:09.812Z,85.50
2022-10-08T01:02:36.977Z,85.60
2022-10-08T01:05:05.939Z,85.60
2022-10-08T01:08:05.716Z,85.70
2022-10-08T01:10:56.612Z,85.80
2022-10-08T01:13:24.009Z,85.90
2022-10-08T01:16:00.466Z,86.10
2022-10-08T01:18:48.256Z,86.30
2022-10-08T01:21:59.517Z,86.40
2022-10-08T01:25:06.994Z,87.30
2022-10-08T01:27:45.727Z,86.80
2022-10-08T01:30:16.452Z,87.00
2022-10-08T01:33:12.417Z,87.50
2022-10-08T01:35:48.631Z,87.10
2022-10-08T01:38:17.889Z,87.20
2022-10-08T01:40:47.257Z,87.30
2022-10-08T01:43:17.401Z,87.50
2022-10-08T01:45:52.280Z,87.60
2022-10-08T01:48:25.099Z,87.60
2022-10-08T01:51:06.592Z,87.70
2022-10-08T01:53:39.492Z,87.80
2022-10-08T01:56:11.066Z,87.70
2022-10-08T01:59:13.453Z,87.80
2022-10-08T02:01:59.094Z,87.70
2022-10-08T02:04:35.697Z,87.70
2022-10-08T02:07:09.413Z,87.70
2022-10-08T02:09:46.451Z,87.70
2022-10-08T02:12:14.526Z,87.60
2022-10-08T02:14:46.896Z,87.60
2022-10-08T02:17:47.852Z,87.70
2022-10-08T02:20:33.204Z,87.80
2022-10-08T02:23:24.775Z,87.90
2022-10-08T02:25:57.304Z,88.00
2022-10-08T02:28:51.269Z,88.10
2022-10-08T02:31:18.210Z,88.20
2022-10-08T02:33:50.098Z,88.20
2022-10-08T02:36:22.941Z,88.20
2022-10-08T02:38:59.490Z,88.40
2022-10-08T02:41:30.932Z,88.30
2022-10-08T02:44:03.173Z,88.30
2022-10-08T02:46:35.212Z,88.20
2022-10-08T02:49:08.316Z,88.20
2022-10-08T02:51:40.734Z,88.20
2022-10-08T02:54:09.269Z,88.20
2022-10-08T02:56:58.914Z,88.30
2022-10-08T02:59:26.693Z,88.40
2022-10-08T03:02:03.040Z,88.40
2022-10-08T03:04:45.592Z,88.50
2022-10-08T03:07:15.186Z,88.50
2022-10-08T03:09:44.957Z,88.50
2022-10-08T03:12:12.711Z,88.60
2022-10-08T03:14:43.761Z,88.60
2022-10-08T03:17:14.103Z,88.70
2022-10-08T03:19:41.044Z,88.80
2022-10-08T03:22:08.551Z,88.90
2022-10-08T03:24:36.492Z,89.10
2022-10-08T03:27:04.534Z,89.30
2022-10-08T03:29:31.569Z,89.40
2022-10-08T03:31:58.584Z,89.50
2022-10-08T03:34:26.158Z,89.60
2022-10-08T03:36:53.073Z,89.70
2022-10-08T03:39:20.048Z,89.80
2022-10-08T03:41:47.186Z,89.80
2022-10-08T03:44:14.152Z,89.80
2022-10-08T03:46:41.101Z,89.90
2022-10-08T03:49:08.080Z,89.90
2022-10-08T03:51:35.092Z,89.60
2022-10-08T03:54:02.032Z,89.20
2022-10-08T03:56:29.066Z,88.90
2022-10-08T03:59:00.332Z,88.70
2022-10-08T04:01:28.660Z,88.70
2022-10-08T04:03:55.980Z,88.80
2022-10-08T04:06:23.264Z,88.90
2022-10-08T04:08:50.303Z,88.90
2022-10-08T04:11:18.216Z,89.00
2022-10-08T04:13:45.329Z,89.20
2022-10-08T04:16:17.102Z,89.30
2022-10-08T04:18:44.951Z,89.30
2022-10-08T04:21:15.224Z,89.40
2022-10-08T04:23:43.557Z,89.50
2022-10-08T04:26:12.961Z,89.50
2022-10-08T04:28:41.811Z,89.60
2022-10-08T04:31:12.121Z,89.60
2022-10-08T04:33:39.742Z,89.70
2022-10-08T04:36:15.399Z,89.80
2022-10-08T04:38:43.787Z,89.80
2022-10-08T04:41:23.267Z,89.60
2022-10-08T04:43:50.782Z,89.30
2022-10-08T04:46:19.788Z,89.10
2022-10-08T04:48:56.773Z,89.20
2022-10-08T04:51:25.827Z,89.50
2022-10-08T04:53:53.906Z,89.60
2022-10-08T04:56:26.794Z,89.80
2022-10-08T04:58:57.420Z,89.90
2022-10-08T05:01:26.151Z,90.00
2022-10-08T05:03:54.922Z,90.00
2022-10-08T05:06:28.137Z,90.10
2022-10-08T05:08:55.720Z,90.10
2022-10-08T05:11:27.158Z,90.10
2022-10-08T05:13:55.692Z,90.20
2022-10-08T05:16:23.716Z,90.10
2022-10-08T05:18:52.059Z,90.10
2022-10-08T05:21:24.542Z,90.00
2022-10-08T05:24:07.713Z,90.10
2022-10-08T05:29:24.267Z,90.10
2022-10-08T05:31:51.412Z,90.10
2022-10-08T05:34:18.460Z,90.20
2022-10-08T05:36:45.707Z,90.20
2022-10-08T05:39:12.723Z,90.30
2022-10-08T05:41:40.472Z,90.40
2022-10-08T05:44:08.481Z,90.30
2022-10-08T05:46:37.017Z,90.30
2022-10-08T05:49:07.472Z,90.30
2022-10-08T05:51:34.759Z,90.30
2022-10-08T05:54:01.741Z,90.40
2022-10-08T05:56:29.383Z,90.40
2022-10-08T05:58:56.470Z,90.40
2022-10-08T06:01:25.044Z,90.50
2022-10-08T06:03:53.861Z,90.50
2022-10-08T06:06:21.493Z,90.50
2022-10-08T06:08:52.578Z,90.40
2022-10-08T06:11:19.544Z,90.50
2022-10-08T06:13:46.567Z,90.50
2022-10-08T06:16:13.658Z,90.50
2022-10-08T06:18:41.777Z,90.60
2022-10-08T06:21:11.517Z,90.60
2022-10-08T06:23:40.105Z,90.60
2022-10-08T06:26:09.813Z,90.60
2022-10-08T06:28:38.928Z,90.60
2022-10-08T06:31:07.778Z,90.60
2022-10-08T06:33:35.380Z,90.60
2022-10-08T06:36:20.044Z,90.60
2022-10-08T06:38:51.328Z,90.60
2022-10-08T06:41:18.494Z,90.50
2022-10-08T06:43:46.039Z,90.50
2022-10-08T06:46:13.194Z,90.60
2022-10-08T06:48:40.205Z,90.60
2022-10-08T06:51:12.364Z,90.60
2022-10-08T06:53:40.171Z,90.60
2022-10-08T06:56:10.776Z,90.60
2022-10-08T06:58:38.601Z,90.60
2022-10-08T07:01:33.269Z,90.50
2022-10-08T07:04:01.950Z,90.50
2022-10-08T07:06:29.314Z,90.30
2022-10-08T07:08:58.505Z,90.20
2022-10-08T07:11:26.014Z,90.10
2022-10-08T07:13:54.855Z,90.00
2022-10-08T07:16:23.910Z,89.70
2022-10-08T07:18:52.662Z,89.40
2022-10-08T07:21:21.820Z,89.30
2022-10-08T07:23:49.471Z,89.20
2022-10-08T07:26:27.407Z,89.20
2022-10-08T07:29:00.447Z,88.70
2022-10-08T07:31:30.344Z,87.90
2022-10-08T07:33:58.281Z,87.50
2022-10-08T07:36:26.403Z,86.90
2022-10-08T07:38:56.996Z,86.00
2022-10-08T07:41:26.504Z,85.20
2022-10-08T07:43:55.369Z,84.40
2022-10-08T07:46:22.779Z,83.70
2022-10-08T07:48:50.890Z,83.40
2022-10-08T07:51:19.876Z,82.80
2022-10-08T07:53:47.462Z,82.10
2022-10-08T07:56:17.146Z,80.60
2022-10-08T07:58:44.260Z,80.30
2022-10-08T08:01:14.903Z,79.90
2022-10-08T08:03:42.556Z,79.40
2022-10-08T08:06:12.766Z,78.70
2022-10-08T08:08:43.027Z,77.80
2022-10-08T08:11:12.313Z,77.20
2022-10-08T08:13:40.238Z,76.10
2022-10-08T08:16:13.737Z,75.10
2022-10-08T08:18:43.644Z,74.40
2022-10-08T08:21:38.429Z,73.50
2022-10-08T08:24:10.555Z,73.40
2022-10-08T08:26:39.048Z,73.20
2022-10-08T08:29:12.404Z,72.10
2022-10-08T08:31:43.375Z,71.90
2022-10-08T08:34:13.577Z,71.50
2022-10-08T08:36:43.428Z,71.00
2022-10-08T08:39:17.362Z,70.50
2022-10-08T08:42:05.676Z,71.20
2022-10-08T08:44:34.764Z,71.30
2022-10-08T08:47:04.234Z,71.20
2022-10-08T08:49:37.802Z,70.90
2022-10-08T08:52:06.444Z,70.30
2022-10-08T08:54:33.483Z,70.10
2022-10-08T08:57:09.464Z,70.10
2022-10-08T08:59:42.105Z,69.60
2022-10-08T09:02:23.845Z,69.40
2022-10-08T09:05:00.546Z,68.30
2022-10-08T09:07:34.614Z,68.40
2022-10-08T09:10:06.630Z,68.40
2022-10-08T09:12:37.904Z,67.90
2022-10-08T09:15:14.127Z,66.70
2022-10-08T09:17:42.095Z,66.80
2022-10-08T09:20:14.224Z,67.30
2022-10-08T09:22:41.589Z,67.70
2022-10-08T09:25:16.812Z,67.10
2022-10-08T09:27:54.632Z,67.40
2022-10-08T09:30:39.665Z,66.40
2022-10-08T09:33:12.899Z,65.90
2022-10-08T09:35:46.499Z,65.80
2022-10-08T09:38:36.868Z,65.70
2022-10-08T09:41:03.813Z,65.30
2022-10-08T09:43:33.506Z,65.80
2022-10-08T09:46:04.680Z,66.00
2022-10-08T09:48:31.762Z,65.40
2022-10-08T09:51:04.949Z,65.10
2022-10-08T09:53:45.342Z,64.80
2022-10-08T09:56:14.196Z,64.80
2022-10-08T09:58:54.896Z,64.80
2022-10-08T10:01:22.462Z,64.50
2022-10-08T10:04:02.036Z,64.10
2022-10-08T10:06:35.161Z,63.40
2022-10-08T10:09:29.937Z,62.80
2022-10-08T10:12:34.050Z,62.20
2022-10-08T10:15:04.189Z,62.60
2022-10-08T10:17:36.932Z,62.50
2022-10-08T10:20:22.629Z,61.60
2022-10-08T10:23:06.539Z,61.50
2022-10-08T10:25:45.701Z,60.70
2022-10-08T10:28:36.718Z,59.80
2022-10-08T10:31:07.381Z,60.30
2022-10-08T10:33:52.645Z,59.70
2022-10-08T10:36:20.936Z,59.60
2022-10-08T10:39:03.299Z,59.60
2022-10-08T10:41:43.408Z,59.30
2022-10-08T10:44:16.965Z,59.50
2022-10-08T10:46:53.652Z,59.50
2022-10-08T10:49:31.297Z,59.40
2022-10-08T10:52:22.580Z,58.60
2022-10-08T10:55:02.730Z,57.90
2022-10-08T10:58:00.603Z,57.80
2022-10-08T11:00:31.719Z,57.20
2022-10-08T11:03:23.119Z,57.10
2022-10-08T11:06:04.741Z,57.20
2022-10-08T11:09:00.996Z,57.80
2022-10-08T11:11:33.333Z,57.20
2022-10-08T11:14:12.173Z,56.40
2022-10-08T11:16:57.069Z,56.10
2022-10-08T11:19:26.793Z,55.70
2022-10-08T11:22:02.309Z,56.00
2022-10-08T11:24:44.744Z,55.40
2022-10-08T11:27:36.621Z,55.60
2022-10-08T11:30:23.270Z,55.60
2022-10-08T11:32:54.092Z,55.50
2022-10-08T11:35:27.482Z,55.70
2022-10-08T11:38:03.633Z,56.00
2022-10-08T11:40:51.621Z,55.80
2022-10-08T11:43:24.365Z,55.60
2022-10-08T11:46:20.739Z,55.10
2022-10-08T11:48:48.463Z,54.60
2022-10-08T11:51:21.947Z,54.30
2022-10-08T11:54:06.919Z,54.10
2022-10-08T11:56:37.359Z,54.10
2022-10-08T11:59:29.513Z,55.00
2022-10-08T12:02:22.929Z,55.10
2022-10-08T12:04:52.624Z,54.90
2022-10-08T12:07:25.095Z,55.10
2022-10-08T12:10:06.963Z,54.60
2022-10-08T12:13:11.085Z,54.40
2022-10-08T12:15:40.486Z,54.80
2022-10-08T12:18:10.334Z,54.60
2022-10-08T12:20:39.762Z,54.50
2022-10-08T12:23:34.430Z,54.10
2022-10-08T12:26:01.423Z,54.20
2022-10-08T12:28:28.420Z,54.20
2022-10-08T12:30:58.654Z,54.30
2022-10-08T12:33:26.021Z,54.80
2022-10-08T12:36:34.346Z,54.50
2022-10-08T12:39:41.107Z,54.40
2022-10-08T12:42:31.622Z,54.40
2022-10-08T12:45:01.392Z,54.40
2022-10-08T12:47:40.652Z,54.50
2022-10-08T12:50:25.704Z,54.60
2022-10-08T12:52:53.312Z,54.60
2022-10-08T12:55:23.330Z,54.90
2022-10-08T12:57:51.867Z,55.20
2022-10-08T13:00:28.535Z,54.80
2022-10-08T13:03:11.811Z,55.20
2022-10-08T13:05:40.794Z,54.50
2022-10-08T13:08:26.595Z,54.30
2022-10-08T13:10:53.755Z,54.10
2022-10-08T13:13:33.559Z,54.10
2022-10-08T13:16:02.427Z,53.60
2022-10-08T13:18:30.879Z,53.40
2022-10-08T13:21:07.970Z,53.30
2022-10-08T13:23:44.356Z,53.90
2022-10-08T13:26:43.769Z,53.70
2022-10-08T13:29:37.293Z,54.10
2022-10-08T13:32:27.122Z,54.10
2022-10-08T13:35:05.412Z,54.20
2022-10-08T13:37:40.459Z,54.60
2022-10-08T13:40:13.679Z,53.90
2022-10-08T13:42:43.078Z,54.10
2022-10-08T13:45:20.860Z,53.90
2022-10-08T13:47:48.786Z,53.80
2022-10-08T13:50:16.814Z,53.60
2022-10-08T13:52:54.340Z,53.60
2022-10-08T13:55:31.349Z,53.50
2022-10-08T13:58:01.970Z,53.20
2022-10-08T14:00:35.661Z,52.70
2022-10-08T14:03:03.304Z,53.00
2022-10-08T14:05:35.161Z,53.70
2022-10-08T14:08:12.337Z,53.50
2022-10-08T14:10:41.234Z,54.10
2022-10-08T14:13:11.130Z,53.40
2022-10-08T14:15:38.064Z,54.10
2022-10-08T14:18:05.222Z,54.70
2022-10-08T14:20:32.591Z,55.10
2022-10-08T14:22:59.594Z,55.00
2022-10-08T14:25:28.571Z,55.30
2022-10-08T14:27:55.572Z,55.10
2022-10-08T14:30:22.525Z,55.20
2022-10-08T14:32:49.504Z,54.50
2022-10-08T14:35:17.078Z,54.90
2022-10-08T14:37:44.232Z,54.80
2022-10-08T14:40:16.900Z,54.80
2022-10-08T14:42:43.894Z,55.00
2022-10-08T14:45:11.171Z,54.50
2022-10-08T14:47:38.207Z,54.50
2022-10-08T14:50:06.038Z,54.60
2022-10-08T14:52:33.147Z,55.20
2022-10-08T14:55:00.167Z,55.30
2022-10-08T14:57:27.111Z,55.20
2022-10-08T14:59:54.129Z,55.50
2022-10-08T15:02:21.099Z,55.50
2022-10-08T15:04:48.074Z,56.00
2022-10-08T15:07:15.281Z,55.60
2022-10-08T15:09:43.081Z,55.90
2022-10-08T15:12:10.013Z,56.40
2022-10-08T15:14:38.400Z,56.90
2022-10-08T15:17:05.701Z,57.30
2022-10-08T15:19:32.732Z,57.30
2022-10-08T15:21:59.705Z,57.40
2022-10-08T15:24:26.626Z,57.00
2022-10-08T15:26:53.568Z,57.10
2022-10-08T15:29:20.536Z,57.00
2022-10-08T15:31:50.924Z,56.60
2022-10-08T15:34:19.810Z,56.80
2022-10-08T15:36:47.322Z,57.10
2022-10-08T15:39:17.055Z,57.70
2022-10-08T15:41:47.091Z,58.10
2022-10-08T15:44:26.231Z,58.30
2022-10-08T15:46:59.712Z,58.80
2022-10-08T15:49:31.396Z,58.90
2022-10-08T15:51:59.099Z,59.00
2022-10-08T15:54:26.097Z,59.40
2022-10-08T15:56:53.129Z,59.60
2022-10-08T15:59:20.231Z,59.70
2022-10-08T16:01:47.194Z,59.80
2022-10-08T16:04:14.688Z,60.10
2022-10-08T16:06:45.231Z,60.30
2022-10-08T16:09:13.801Z,60.60
2022-10-08T16:11:41.412Z,60.80
2022-10-08T16:14:19.372Z,61.00
2022-10-08T16:16:46.666Z,61.90
2022-10-08T16:19:18.584Z,61.30
2022-10-08T16:21:46.823Z,61.50
2022-10-08T16:24:14.373Z,61.70
2022-10-08T16:26:42.333Z,62.00
2022-10-08T16:29:12.785Z,62.20
2022-10-08T16:31:41.103Z,62.40
2022-10-08T16:34:19.172Z,62.50
2022-10-08T16:36:48.058Z,62.90
2022-10-08T16:39:20.852Z,63.20
2022-10-08T16:41:48.968Z,63.50
2022-10-08T16:44:19.019Z,63.60
2022-10-08T16:46:50.173Z,63.70
2022-10-08T16:49:28.727Z,63.90
2022-10-08T16:52:01.657Z,64.00
2022-10-08T16:54:29.059Z,64.20
2022-10-08T16:56:56.801Z,64.40
2022-10-08T16:59:25.948Z,64.70
2022-10-08T17:01:55.718Z,65.60
2022-10-08T17:04:25.042Z,65.40
2022-10-08T17:06:52.136Z,65.80
2022-10-08T17:09:20.426Z,66.20
2022-10-08T17:11:47.483Z,66.50
2022-10-08T17:14:14.509Z,66.90
2022-10-08T17:16:43.508Z,67.00
2022-10-08T17:19:10.827Z,67.20
2022-10-08T17:21:38.433Z,67.40
2022-10-08T17:24:06.143Z,67.70
2022-10-08T17:26:33.557Z,68.00
2022-10-08T17:29:09.214Z,68.10
2022-10-08T17:31:37.295Z,68.40
2022-10-08T17:34:04.871Z,68.60
2022-10-08T17:36:34.687Z,68.90
2022-10-08T17:39:05.405Z,69.20
2022-10-08T17:41:34.707Z,69.40
2022-10-08T17:44:04.577Z,69.60
2022-10-08T17:46:35.363Z,69.60
2022-10-08T17:49:03.206Z,69.60
2022-10-08T17:51:30.686Z,69.60
2022-10-08T17:54:01.894Z,69.80
2022-10-08T17:56:29.840Z,70.00
2022-10-08T17:58:57.259Z,70.00
2022-10-08T18:01:36.004Z,70.00
2022-10-08T18:04:06.062Z,70.00
2022-10-08T18:06:35.409Z,69.80
2022-10-08T18:09:05.252Z,70.00
2022-10-08T18:11:34.936Z,70.40
2022-10-08T18:14:03.702Z,70.80
2022-10-08T18:16:30.811Z,71.10
2022-10-08T18:18:57.911Z,71.40
2022-10-08T18:21:25.030Z,71.70
2022-10-08T18:23:52.498Z,71.90
2022-10-08T18:26:25.540Z,72.50
2022-10-08T18:28:58.035Z,72.40
2022-10-08T18:31:28.709Z,72.60
2022-10-08T18:33:57.949Z,72.90
2022-10-08T18:36:30.456Z,73.10
2022-10-08T18:39:03.152Z,73.40
2022-10-08T18:41:38.812Z,73.70
2022-10-08T18:44:06.588Z,73.80
2022-10-08T18:46:35.966Z,73.90
2022-10-08T18:49:03.824Z,74.00
2022-10-08T18:51:31.905Z,74.10
2022-10-08T18:54:01.960Z,74.40
2022-10-08T18:56:32.056Z,74.50
2022-10-08T18:59:03.924Z,74.70
2022-10-08T19:01:36.503Z,74.90
2022-10-08T19:04:09.604Z,75.10
2022-10-08T19:06:38.873Z,75.20
2022-10-08T19:09:06.748Z,75.40
2022-10-08T19:11:45.178Z,75.60
2022-10-08T19:14:14.884Z,75.90
2022-10-08T19:16:42.498Z,76.00
2022-10-08T19:19:19.554Z,76.10
2022-10-08T19:21:48.221Z,76.30
2022-10-08T19:24:21.922Z,76.40
2022-10-08T19:26:49.656Z,76.80
2022-10-08T19:29:19.768Z,76.90
2022-10-08T19:31:47.964Z,77.10
2022-10-08T19:34:20.414Z,77.30
2022-10-08T19:36:48.514Z,77.30
2022-10-08T19:39:20.981Z,77.50
2022-10-08T19:41:48.980Z,77.70
2022-10-08T19:44:19.177Z,77.70
2022-10-08T19:46:47.016Z,77.90
2022-10-08T19:49:14.548Z,78.00
2022-10-08T19:51:43.110Z,78.10
2022-10-08T19:54:10.729Z,78.10
2022-10-08T19:56:37.768Z,78.20
2022-10-08T19:59:05.570Z,78.30
2022-10-08T20:01:36.218Z,78.30
2022-10-08T20:04:05.526Z,78.40
2022-10-08T20:06:35.835Z,78.30
2022-10-08T20:09:04.194Z,78.40
2022-10-08T20:11:32.310Z,78.40
2022-10-08T20:14:00.681Z,78.50
2022-10-08T20:16:33.852Z,78.70
2022-10-08T20:19:07.459Z,78.90
2022-10-08T20:21:37.909Z,79.00
2022-10-08T20:24:06.259Z,78.90
2022-10-08T20:26:38.891Z,79.00
2022-10-08T20:29:12.468Z,79.20
2022-10-08T20:31:42.616Z,79.40
2022-10-08T20:34:17.394Z,79.70
2022-10-08T20:36:46.105Z,79.90
2022-10-08T20:39:15.220Z,80.30
2022-10-08T20:41:42.906Z,80.60
2022-10-08T20:44:10.152Z,80.80
2022-10-08T20:46:38.590Z,81.20
2022-10-08T20:49:06.162Z,81.40
2022-10-08T20:51:33.902Z,81.50
2022-10-08T20:54:04.742Z,81.70
2022-10-08T20:56:38.476Z,81.70
2022-10-08T20:59:06.143Z,81.90
2022-10-08T21:01:35.840Z,82.20
2022-10-08T21:04:03.221Z,82.50
2022-10-08T21:06:34.635Z,82.40
2022-10-08T21:09:01.814Z,82.80
2022-10-08T21:11:30.353Z,83.10
2022-10-08T21:14:01.498Z,83.10
2022-10-08T21:16:31.809Z,83.30
2022-10-08T21:19:01.295Z,83.40
2022-10-08T21:21:29.960Z,83.50
2022-10-08T21:23:58.026Z,83.70
2022-10-08T21:26:33.222Z,83.80
2022-10-08T21:29:02.482Z,83.80
2022-10-08T21:31:31.517Z,83.80
2022-10-08T21:33:59.029Z,83.90
2022-10-08T21:36:32.184Z,83.90
2022-10-08T21:39:00.687Z,84.10
2022-10-08T21:41:30.423Z,84.20
2022-10-08T21:43:59.953Z,84.30
2022-10-08T21:46:29.902Z,84.40
2022-10-08T21:48:59.343Z,84.50
2022-10-08T21:51:27.574Z,84.70
2022-10-08T21:53:56.683Z,84.80
2022-10-08T21:56:26.672Z,84.80
2022-10-08T21:58:56.107Z,85.00
2022-10-08T22:01:28.046Z,85.30
2022-10-08T22:03:55.857Z,85.70
2022-10-08T22:06:23.469Z,86.00
2022-10-08T22:08:50.839Z,86.20
2022-10-08T22:11:17.823Z,86.30
2022-10-08T22:13:45.480Z,86.80
2022-10-08T22:16:14.677Z,87.50
2022-10-08T22:18:42.117Z,87.70
2022-10-08T22:21:20.479Z,87.90
2022-10-08T22:23:48.756Z,88.10
2022-10-08T22:26:31.582Z,88.20
2022-10-08T22:28:59.039Z,88.70
2022-10-08T22:31:26.919Z,88.90
2022-10-08T22:33:54.053Z,88.90
2022-10-08T22:36:26.738Z,89.00
2022-10-08T22:38:54.491Z,89.10
2022-10-08T22:41:27.069Z,89.10
2022-10-08T22:43:54.469Z,89.00
2022-10-08T22:46:28.139Z,88.90
2022-10-08T22:49:03.653Z,88.70
2022-10-08T22:51:30.969Z,88.70
2022-10-08T22:53:57.966Z,88.50
2022-10-08T22:56:27.742Z,88.40
2022-10-08T22:58:54.757Z,88.40
2022-10-08T23:01:24.559Z,88.50
2022-10-08T23:03:52.076Z,88.70
2022-10-08T23:06:28.011Z,88.70
2022-10-08T23:09:00.823Z,88.80
2022-10-08T23:11:29.270Z,88.60
2022-10-08T23:13:58.012Z,88.50
2022-10-08T23:16:26.551Z,88.40
2022-10-08T23:18:58.646Z,88.50
2022-10-08T23:21:26.834Z,88.90
2022-10-08T23:23:54.608Z,89.00
2022-10-08T23:26:22.786Z,89.00
2022-10-08T23:28:55.096Z,89.00
2022-10-08T23:31:24.880Z,89.00
2022-10-08T23:33:53.737Z,89.40
2022-10-08T23:36:23.897Z,89.80
2022-10-08T23:38:51.002Z,90.00
2022-10-08T23:41:18.574Z,90.10
2022-10-08T23:43:47.456Z,90.20
2022-10-08T23:46:17.930Z,90.40
2022-10-08T23:48:45.452Z,90.60
2022-10-08T23:51:13.589Z,90.90
2022-10-08T23:53:41.352Z,91.20
2022-10-08T23:56:08.666Z,91.40
2022-10-08T23:58:36.336Z,91.40
